createdAt,value
2023-05-16T00:01:02.060Z,15.01
2023-05-16T00:03:31.770Z,14.98
2023-05-16T00:05:59.822Z,14.96
2023-05-16T00:08:27.726Z,14.90
2023-05-16T00:10:55.743Z,14.89
2023-05-16T00:13:25.256Z,14.93
2023-05-16T00:15:53.595Z,14.96
2023-05-16T00:18:22.240Z,14.98
2023-05-16T00:20:52.403Z,14.96
2023-05-16T00:23:20.363Z,14.90
2023-05-16T00:25:48.276Z,14.88
2023-05-16T00:28:16.204Z,14.85
2023-05-16T00:30:44.090Z,14.80
2023-05-16T00:33:12.269Z,14.78
2023-05-16T00:35:40.169Z,14.79
2023-05-16T00:38:09.670Z,14.74
2023-05-16T00:40:38.700Z,14.69
2023-05-16T00:43:06.608Z,14.65
2023-05-16T00:45:34.479Z,14.60
2023-05-16T00:48:02.806Z,14.52
2023-05-16T00:50:30.718Z,14.52
2023-05-16T00:52:58.927Z,14.59
2023-05-16T00:55:28.282Z,14.62
2023-05-16T00:57:56.275Z,14.58
2023-05-16T01:00:25.414Z,14.51
2023-05-16T01:02:54.748Z,14.44
2023-05-16T01:05:22.821Z,14.42
2023-05-16T01:07:50.889Z,14.33
2023-05-16T01:10:18.833Z,14.15
2023-05-16T01:12:52.755Z,13.98
2023-05-16T01:15:23.737Z,13.97
2023-05-16T01:17:55.765Z,13.96
2023-05-16T01:20:35.344Z,13.95
2023-05-16T01:23:08.377Z,13.89
2023-05-16T01:25:46.776Z,13.83
2023-05-16T01:28:17.001Z,13.79
2023-05-16T01:30:45.210Z,13.78
2023-05-16T01:33:13.313Z,13.75
2023-05-16T01:35:45.479Z,13.73
2023-05-16T01:38:17.963Z,13.73
2023-05-16T01:40:49.374Z,13.73
2023-05-16T01:43:21.489Z,13.72
2023-05-16T01:45:54.413Z,13.75
2023-05-16T01:48:24.029Z,13.73
2023-05-16T01:50:55.477Z,13.77
2023-05-16T01:53:24.474Z,13.80
2023-05-16T01:55:53.126Z,13.80
2023-05-16T01:58:23.845Z,13.76
2023-05-16T02:00:53.770Z,13.79
2023-05-16T02:03:21.762Z,13.81
2023-05-16T02:05:49.905Z,13.84
2023-05-16T02:08:18.039Z,13.87
2023-05-16T02:10:46.082Z,13.87
2023-05-16T02:13:14.210Z,13.84
2023-05-16T02:15:43.710Z,13.81
2023-05-16T02:18:12.516Z,13.74
2023-05-16T02:20:40.841Z,13.69
2023-05-16T02:23:08.909Z,13.61
2023-05-16T02:25:36.771Z,13.62
2023-05-16T02:28:04.810Z,13.62
2023-05-16T02:30:32.877Z,13.62
2023-05-16T02:33:02.280Z,13.63
2023-05-16T02:35:31.558Z,13.67
2023-05-16T02:38:01.278Z,13.66
2023-05-16T02:40:30.055Z,13.66
2023-05-16T02:42:58.090Z,13.66
2023-05-16T02:45:27.435Z,13.65
2023-05-16T02:47:55.890Z,13.58
2023-05-16T02:50:26.287Z,13.53
2023-05-16T02:52:56.402Z,13.53
2023-05-16T02:55:24.917Z,13.55
2023-05-16T02:57:52.855Z,13.61
2023-05-16T03:00:21.595Z,13.73
2023-05-16T03:02:50.061Z,13.80
2023-05-16T03:05:18.810Z,13.85
2023-05-16T03:07:48.102Z,13.91
2023-05-16T03:10:16.178Z,13.97
2023-05-16T03:12:44.062Z,14.00
2023-05-16T03:15:13.919Z,13.99
2023-05-16T03:17:42.018Z,13.97
2023-05-16T03:20:12.355Z,13.94
2023-05-16T03:22:40.673Z,13.85
2023-05-16T03:25:10.448Z,13.75
2023-05-16T03:27:42.054Z,13.66
2023-05-16T03:30:10.885Z,13.62
2023-05-16T03:32:40.027Z,13.65
2023-05-16T03:35:08.694Z,13.62
2023-05-16T03:37:36.592Z,13.53
2023-05-16T03:40:06.300Z,13.47
2023-05-16T03:42:35.719Z,13.38
2023-05-16T03:45:03.690Z,13.32
2023-05-16T03:47:31.954Z,13.29
2023-05-16T03:50:00.225Z,13.31
2023-05-16T03:52:28.168Z,13.35
2023-05-16T03:54:56.157Z,13.36
2023-05-16T03:57:24.081Z,13.26
2023-05-16T03:59:53.377Z,13.22
2023-05-16T04:02:21.326Z,13.21
2023-05-16T04:04:49.232Z,13.21
2023-05-16T04:07:17.295Z,13.17
2023-05-16T04:09:45.247Z,13.11
2023-05-16T04:12:13.179Z,13.11
2023-05-16T04:14:41.048Z,13.12
2023-05-16T04:17:11.053Z,13.11
2023-05-16T04:19:39.216Z,13.10
2023-05-16T04:22:07.719Z,13.07
2023-05-16T04:24:35.604Z,13.01
2023-05-16T04:27:04.906Z,12.96
2023-05-16T04:29:33.113Z,12.95
2023-05-16T04:32:01.041Z,12.94
2023-05-16T04:34:31.015Z,12.93
2023-05-16T04:36:59.039Z,12.91
2023-05-16T04:39:26.974Z,12.87
2023-05-16T04:41:59.212Z,12.88
2023-05-16T04:44:27.416Z,12.87
2023-05-16T04:46:55.668Z,12.88
2023-05-16T04:49:26.241Z,12.90
2023-05-16T04:51:55.672Z,12.89
2023-05-16T04:54:23.535Z,12.90
2023-05-16T04:56:51.686Z,12.90
2023-05-16T04:59:22.014Z,12.84
2023-05-16T05:01:49.999Z,12.84
2023-05-16T05:04:18.282Z,12.85
2023-05-16T05:06:46.277Z,12.89
2023-05-16T05:09:15.553Z,12.89
2023-05-16T05:11:43.483Z,12.90
2023-05-16T05:14:11.375Z,12.90
2023-05-16T05:16:39.425Z,12.86
2023-05-16T05:19:09.031Z,12.83
2023-05-16T05:21:37.707Z,12.78
2023-05-16T05:24:06.259Z,12.76
2023-05-16T05:26:35.584Z,12.75
2023-05-16T05:29:05.669Z,12.74
2023-05-16T05:31:35.108Z,12.73
2023-05-16T05:34:03.786Z,12.73
2023-05-16T05:36:32.376Z,12.76
2023-05-16T05:39:00.243Z,12.79
2023-05-16T05:41:28.400Z,12.88
2023-05-16T05:43:57.704Z,12.96
2023-05-16T05:46:26.023Z,13.08
2023-05-16T05:48:54.004Z,13.17
2023-05-16T05:51:22.024Z,13.25
2023-05-16T05:53:50.061Z,13.28
2023-05-16T05:56:18.289Z,13.36
2023-05-16T05:58:46.237Z,13.39
2023-05-16T06:01:15.848Z,13.48
2023-05-16T06:03:43.918Z,13.56
2023-05-16T06:06:11.849Z,13.63
2023-05-16T06:08:39.696Z,13.75
2023-05-16T06:11:07.682Z,13.86
2023-05-16T06:13:35.647Z,13.93
2023-05-16T06:16:03.562Z,14.05
2023-05-16T06:18:32.854Z,14.16
2023-05-16T06:21:00.821Z,14.26
2023-05-16T06:23:28.750Z,14.34
2023-05-16T06:25:56.941Z,14.35
2023-05-16T06:28:25.084Z,14.37
2023-05-16T06:30:53.156Z,14.42
2023-05-16T06:33:21.102Z,14.43
2023-05-16T06:35:50.415Z,14.44
2023-05-16T06:38:19.446Z,14.47
2023-05-16T06:40:47.343Z,14.55
2023-05-16T06:43:15.455Z,14.67
2023-05-16T06:45:43.365Z,14.78
2023-05-16T06:48:11.585Z,14.87
2023-05-16T06:50:39.535Z,14.88
2023-05-16T06:53:09.042Z,14.90
2023-05-16T06:55:36.979Z,14.96
2023-05-16T06:58:05.083Z,15.08
2023-05-16T07:00:33.076Z,15.19
2023-05-16T07:03:01.324Z,15.31
2023-05-16T07:05:29.839Z,15.41
2023-05-16T07:07:58.779Z,15.53
2023-05-16T07:10:28.514Z,15.65
2023-05-16T07:12:56.657Z,15.75
2023-05-16T07:15:24.950Z,15.81
2023-05-16T07:17:53.208Z,15.89
2023-05-16T07:20:21.489Z,15.98
2023-05-16T07:22:52.293Z,16.07
2023-05-16T07:25:20.394Z,16.13
2023-05-16T07:27:49.822Z,16.20
2023-05-16T07:30:18.064Z,16.34
2023-05-16T07:32:46.125Z,16.42
2023-05-16T07:35:14.301Z,16.40
2023-05-16T07:37:43.518Z,16.40
2023-05-16T07:40:12.101Z,16.43
2023-05-16T07:42:40.013Z,16.47
2023-05-16T07:45:12.874Z,16.54
2023-05-16T07:47:43.182Z,16.60
2023-05-16T07:50:11.804Z,16.61
2023-05-16T07:52:39.778Z,16.65
2023-05-16T07:55:09.131Z,16.69
2023-05-16T07:57:37.138Z,16.74
2023-05-16T08:00:08.166Z,16.84
2023-05-16T08:02:41.433Z,16.95
2023-05-16T08:05:10.774Z,17.06
2023-05-16T08:07:38.755Z,17.14
2023-05-16T08:10:08.464Z,17.19
2023-05-16T08:12:36.956Z,17.28
2023-05-16T08:15:06.375Z,17.42
2023-05-16T08:17:34.526Z,17.40
2023-05-16T08:20:04.280Z,17.34
2023-05-16T08:22:33.241Z,17.35
2023-05-16T08:25:01.193Z,17.43
2023-05-16T08:27:29.143Z,17.51
2023-05-16T08:29:57.130Z,17.54
2023-05-16T08:32:25.059Z,17.54
2023-05-16T08:34:53.310Z,17.55
2023-05-16T08:37:22.587Z,17.48
2023-05-16T08:39:50.848Z,17.43
2023-05-16T08:42:19.150Z,17.40
2023-05-16T08:44:47.252Z,17.46
2023-05-16T08:47:18.534Z,17.65
2023-05-16T08:49:47.387Z,17.69
2023-05-16T08:52:15.414Z,17.72
2023-05-16T08:54:47.036Z,17.64
2023-05-16T08:57:16.479Z,17.78
2023-05-16T08:59:44.427Z,17.85
2023-05-16T09:02:13.003Z,17.99
2023-05-16T09:04:41.350Z,18.14
2023-05-16T09:07:09.360Z,18.25
2023-05-16T09:09:37.324Z,18.30
2023-05-16T09:12:08.089Z,18.28
2023-05-16T09:14:36.494Z,18.25
2023-05-16T09:17:05.307Z,18.38
2023-05-16T09:19:40.435Z,18.47
2023-05-16T09:22:10.278Z,18.60
2023-05-16T09:24:42.515Z,18.59
2023-05-16T09:27:12.585Z,18.70
2023-05-16T09:29:42.777Z,18.76
2023-05-16T09:32:12.122Z,18.90
2023-05-16T09:34:41.228Z,18.98
2023-05-16T09:37:11.100Z,19.05
2023-05-16T09:39:41.814Z,19.02
2023-05-16T09:42:14.031Z,19.10
2023-05-16T09:44:42.554Z,19.20
2023-05-16T09:47:10.489Z,19.33
2023-05-16T09:49:39.048Z,19.28
2023-05-16T09:52:07.481Z,19.20
2023-05-16T09:54:35.747Z,19.29
2023-05-16T09:57:03.683Z,19.22
2023-05-16T09:59:36.711Z,19.38
2023-05-16T10:02:05.046Z,19.46
2023-05-16T10:04:33.168Z,19.43
2023-05-16T10:07:01.926Z,19.48
2023-05-16T10:09:30.840Z,19.44
2023-05-16T10:12:03.077Z,19.57
2023-05-16T10:14:34.866Z,19.70
2023-05-16T10:17:02.869Z,19.78
2023-05-16T10:19:31.592Z,19.77
2023-05-16T10:22:01.230Z,19.96
2023-05-16T10:24:32.815Z,20.03
2023-05-16T10:27:01.309Z,20.21
2023-05-16T10:29:30.589Z,20.26
2023-05-16T10:32:04.429Z,20.24
2023-05-16T10:34:32.430Z,20.34
2023-05-16T10:37:00.638Z,20.45
2023-05-16T10:39:28.701Z,20.51
2023-05-16T10:41:57.902Z,20.52
2023-05-16T10:44:26.186Z,20.48
2023-05-16T10:46:54.078Z,20.36
2023-05-16T10:49:24.280Z,20.47
2023-05-16T10:52:07.204Z,20.35
2023-05-16T10:54:37.758Z,20.34
2023-05-16T10:57:07.925Z,20.45
2023-05-16T10:59:45.911Z,20.40
2023-05-16T11:02:25.285Z,20.40
2023-05-16T11:04:56.146Z,20.37
2023-05-16T11:07:27.360Z,20.67
2023-05-16T11:10:08.087Z,20.83
2023-05-16T11:12:55.136Z,20.90
2023-05-16T11:15:25.618Z,20.71
2023-05-16T11:18:10.897Z,20.72
2023-05-16T11:20:40.731Z,20.78
2023-05-16T11:23:25.752Z,20.60
2023-05-16T11:25:55.457Z,20.66
2023-05-16T11:28:25.146Z,20.71
2023-05-16T11:30:56.303Z,20.89
2023-05-16T11:33:24.618Z,21.13
2023-05-16T11:38:44.300Z,21.13
2023-05-16T11:41:12.837Z,21.24
2023-05-16T11:43:42.051Z,20.93
2023-05-16T11:46:12.887Z,21.28
2023-05-16T11:48:41.026Z,21.47
2023-05-16T11:51:10.732Z,21.55
2023-05-16T11:53:42.251Z,21.55
2023-05-16T11:56:10.414Z,21.55
2023-05-16T11:58:38.526Z,21.72
2023-05-16T12:01:06.796Z,21.81
2023-05-16T12:03:35.854Z,21.65
2023-05-16T12:06:04.297Z,21.75
2023-05-16T12:08:33.699Z,21.91
2023-05-16T12:11:01.667Z,21.78
2023-05-16T12:13:29.716Z,22.10
2023-05-16T12:15:59.115Z,22.24
2023-05-16T12:18:27.164Z,22.17
2023-05-16T12:20:55.199Z,22.06
2023-05-16T12:23:23.210Z,22.05
2023-05-16T12:25:54.052Z,22.06
2023-05-16T12:28:22.433Z,22.13
2023-05-16T12:30:50.873Z,22.13
2023-05-16T12:33:18.901Z,22.10
2023-05-16T12:35:47.365Z,22.12
2023-05-16T12:38:16.059Z,22.24
2023-05-16T12:40:44.365Z,22.32
2023-05-16T12:43:16.811Z,22.34
2023-05-16T12:45:50.676Z,22.43
2023-05-16T12:48:18.793Z,22.50
2023-05-16T12:50:47.452Z,22.43
2023-05-16T12:53:16.462Z,22.37
2023-05-16T12:55:44.535Z,22.51
2023-05-16T12:58:12.881Z,22.37
2023-05-16T13:00:42.486Z,22.48
2023-05-16T13:03:10.709Z,22.44
2023-05-16T13:05:38.744Z,22.53
2023-05-16T13:08:07.761Z,22.61
2023-05-16T13:10:36.170Z,22.26
2023-05-16T13:13:04.561Z,22.33
2023-05-16T13:15:32.689Z,22.32
2023-05-16T13:18:02.368Z,22.47
2023-05-16T13:20:30.794Z,22.61
2023-05-16T13:22:58.818Z,22.75
2023-05-16T13:25:27.117Z,22.63
2023-05-16T13:27:59.732Z,22.63
2023-05-16T13:30:28.988Z,22.49
2023-05-16T13:32:57.073Z,22.54
2023-05-16T13:35:26.990Z,22.62
2023-05-16T13:37:55.244Z,22.83
2023-05-16T13:40:25.747Z,23.07
2023-05-16T13:42:55.695Z,23.17
2023-05-16T13:45:27.573Z,23.29
2023-05-16T13:47:58.313Z,23.14
2023-05-16T13:50:33.259Z,23.04
2023-05-16T13:53:01.772Z,23.02
2023-05-16T13:55:30.199Z,23.09
2023-05-16T13:57:58.670Z,23.40
2023-05-16T14:00:43.562Z,23.52
2023-05-16T14:03:16.115Z,23.48
2023-05-16T14:05:46.532Z,23.46
2023-05-16T14:08:15.289Z,23.43
2023-05-16T14:10:43.353Z,23.30
2023-05-16T14:13:11.550Z,23.17
2023-05-16T14:15:43.837Z,23.16
2023-05-16T14:18:12.191Z,23.21
2023-05-16T14:20:40.322Z,23.26
2023-05-16T14:23:10.747Z,23.54
2023-05-16T14:25:38.748Z,23.72
2023-05-16T14:28:07.983Z,23.85
2023-05-16T14:30:37.408Z,23.86
2023-05-16T14:33:06.198Z,23.92
2023-05-16T14:35:34.406Z,23.86
2023-05-16T14:38:02.455Z,23.93
2023-05-16T14:40:32.043Z,23.83
2023-05-16T14:42:59.995Z,23.74
2023-05-16T14:45:28.581Z,23.71
2023-05-16T14:47:59.465Z,23.82
2023-05-16T14:50:27.550Z,23.90
2023-05-16T14:52:55.597Z,23.88
2023-05-16T14:55:23.908Z,23.78
2023-05-16T14:57:59.240Z,23.76
2023-05-16T15:00:28.117Z,23.69
2023-05-16T15:02:56.386Z,23.72
2023-05-16T15:05:25.954Z,23.89
2023-05-16T15:07:54.055Z,24.10
2023-05-16T15:10:21.987Z,24.19
2023-05-16T15:12:50.066Z,24.33
2023-05-16T15:15:19.445Z,24.53
2023-05-16T15:17:47.665Z,24.67
2023-05-16T15:20:15.761Z,24.82
2023-05-16T15:22:43.780Z,25.21
2023-05-16T15:25:14.467Z,25.62
2023-05-16T15:27:43.761Z,25.81
2023-05-16T15:30:15.056Z,25.75
2023-05-16T15:32:44.906Z,25.61
2023-05-16T15:35:13.086Z,25.59
2023-05-16T15:37:41.251Z,25.66
2023-05-16T15:40:11.206Z,25.88
2023-05-16T15:42:39.472Z,26.18
2023-05-16T15:45:08.676Z,26.31
2023-05-16T15:47:36.663Z,26.46
2023-05-16T15:50:06.840Z,26.57
2023-05-16T15:52:37.008Z,26.63
2023-05-16T15:55:06.019Z,26.57
2023-05-16T15:57:35.253Z,26.43
2023-05-16T16:00:03.705Z,26.42
2023-05-16T16:02:40.311Z,26.28
2023-05-16T16:05:10.335Z,25.93
2023-05-16T16:07:38.384Z,25.78
2023-05-16T16:10:07.365Z,25.81
2023-05-16T16:12:37.163Z,25.95
2023-05-16T16:15:06.673Z,26.11
2023-05-16T16:17:35.029Z,26.04
2023-05-16T16:20:03.187Z,26.22
2023-05-16T16:22:32.611Z,26.46
2023-05-16T16:25:00.827Z,26.67
2023-05-16T16:27:29.441Z,26.77
2023-05-16T16:30:01.533Z,26.60
2023-05-16T16:32:32.255Z,26.34
2023-05-16T16:35:01.686Z,26.09
2023-05-16T16:37:29.685Z,25.90
2023-05-16T16:40:01.019Z,25.84
2023-05-16T16:42:30.538Z,25.68
2023-05-16T16:44:58.477Z,25.60
2023-05-16T16:47:26.639Z,25.65
2023-05-16T16:49:54.607Z,25.35
2023-05-16T16:52:22.927Z,25.15
2023-05-16T16:54:50.999Z,25.15
2023-05-16T16:57:20.445Z,25.10
2023-05-16T16:59:49.142Z,25.11
2023-05-16T17:02:17.172Z,25.06
2023-05-16T17:04:45.286Z,24.96
2023-05-16T17:07:13.346Z,24.88
2023-05-16T17:09:42.979Z,24.92
2023-05-16T17:12:18.789Z,24.83
2023-05-16T17:14:51.330Z,24.67
2023-05-16T17:17:19.513Z,24.44
2023-05-16T17:19:48.032Z,24.41
2023-05-16T17:22:16.033Z,24.52
2023-05-16T17:24:43.962Z,24.54
2023-05-16T17:27:12.709Z,24.40
2023-05-16T17:29:40.922Z,24.49
2023-05-16T17:32:10.395Z,24.26
2023-05-16T17:34:38.423Z,24.10
2023-05-16T17:37:07.356Z,23.96
2023-05-16T17:39:35.502Z,23.78
2023-05-16T17:42:05.526Z,23.56
2023-05-16T17:44:33.532Z,23.19
2023-05-16T17:47:01.565Z,22.98
2023-05-16T17:49:32.561Z,22.96
2023-05-16T17:52:00.702Z,23.03
2023-05-16T17:54:31.012Z,22.98
2023-05-16T17:57:00.072Z,22.98
2023-05-16T17:59:28.435Z,22.94
2023-05-16T18:01:57.393Z,22.80
2023-05-16T18:04:25.540Z,22.68
2023-05-16T18:06:56.173Z,22.63
2023-05-16T18:09:24.407Z,22.43
2023-05-16T18:11:52.364Z,22.05
2023-05-16T18:14:20.788Z,21.83
2023-05-16T18:16:48.835Z,21.75
2023-05-16T18:19:18.228Z,21.80
2023-05-16T18:21:46.694Z,21.73
2023-05-16T18:24:16.696Z,21.63
2023-05-16T18:26:46.648Z,21.55
2023-05-16T18:29:14.830Z,21.49
2023-05-16T18:31:43.063Z,21.32
2023-05-16T18:34:11.968Z,21.16
2023-05-16T18:36:39.871Z,20.89
2023-05-16T18:39:10.545Z,20.69
2023-05-16T18:41:39.940Z,20.54
2023-05-16T18:44:07.958Z,20.35
2023-05-16T18:46:36.000Z,20.24
2023-05-16T18:49:04.022Z,20.13
2023-05-16T18:51:31.962Z,19.98
2023-05-16T18:53:59.948Z,19.94
2023-05-16T18:56:27.897Z,19.93
2023-05-16T18:58:57.340Z,19.90
2023-05-16T19:01:25.579Z,19.86
2023-05-16T19:03:53.980Z,19.82
2023-05-16T19:06:22.115Z,19.78
2023-05-16T19:08:50.651Z,19.72
2023-05-16T19:11:18.725Z,19.80
2023-05-16T19:13:47.160Z,19.82
2023-05-16T19:16:16.463Z,19.85
2023-05-16T19:18:44.541Z,19.89
2023-05-16T19:21:13.506Z,19.86
2023-05-16T19:23:41.662Z,19.81
2023-05-16T19:26:09.609Z,19.73
2023-05-16T19:28:37.685Z,19.66
2023-05-16T19:31:06.820Z,19.61
2023-05-16T19:33:36.117Z,19.49
2023-05-16T19:36:05.041Z,19.37
2023-05-16T19:38:33.114Z,19.33
2023-05-16T19:41:03.159Z,19.25
2023-05-16T19:43:31.161Z,19.22
2023-05-16T19:45:59.129Z,19.14
2023-05-16T19:48:28.076Z,19.04
2023-05-16T19:50:57.551Z,18.95
2023-05-16T19:53:25.815Z,18.91
2023-05-16T19:55:53.897Z,18.89
2023-05-16T19:58:22.446Z,18.87
2023-05-16T20:00:50.953Z,18.85
2023-05-16T20:03:19.023Z,18.84
2023-05-16T20:05:47.055Z,18.78
2023-05-16T20:08:16.385Z,18.67
2023-05-16T20:10:45.010Z,18.57
2023-05-16T20:13:15.196Z,18.48
2023-05-16T20:15:43.143Z,18.41
2023-05-16T20:18:11.939Z,18.34
2023-05-16T20:20:39.946Z,18.29
2023-05-16T20:23:08.193Z,18.28
2023-05-16T20:25:37.511Z,18.27
2023-05-16T20:28:06.480Z,18.31
2023-05-16T20:30:34.486Z,18.28
2023-05-16T20:33:02.525Z,18.27
2023-05-16T20:35:30.592Z,18.21
2023-05-16T20:37:58.648Z,18.18
2023-05-16T20:40:26.599Z,18.20
2023-05-16T20:42:56.073Z,18.22
2023-05-16T20:45:27.204Z,18.12
2023-05-16T20:47:55.453Z,17.97
2023-05-16T20:50:23.473Z,17.86
2023-05-16T20:52:51.505Z,17.75
2023-05-16T20:55:19.431Z,17.66
2023-05-16T20:57:47.360Z,17.58
2023-05-16T21:00:19.027Z,17.53
2023-05-16T21:02:47.044Z,17.52
2023-05-16T21:05:25.109Z,17.56
2023-05-16T21:07:54.031Z,17.56
2023-05-16T21:10:22.017Z,17.60
2023-05-16T21:12:50.247Z,17.58
2023-05-16T21:15:23.102Z,17.51
2023-05-16T21:17:51.702Z,17.41
2023-05-16T21:20:19.891Z,17.29
2023-05-16T21:22:47.867Z,17.22
2023-05-16T21:25:16.010Z,17.17
2023-05-16T21:27:44.230Z,17.15
2023-05-16T21:30:13.358Z,17.11
2023-05-16T21:32:42.821Z,17.12
2023-05-16T21:35:10.966Z,17.13
2023-05-16T21:37:39.009Z,17.08
2023-05-16T21:40:09.403Z,17.01
2023-05-16T21:42:37.764Z,16.95
2023-05-16T21:45:12.561Z,16.89
2023-05-16T21:47:42.065Z,16.81
2023-05-16T21:50:10.465Z,16.76
2023-05-16T21:52:38.458Z,16.74
2023-05-16T21:55:07.151Z,16.67
2023-05-16T21:57:35.150Z,16.62
2023-05-16T22:00:06.550Z,16.63
2023-05-16T22:02:35.853Z,16.66
2023-05-16T22:05:07.511Z,16.69
2023-05-16T22:07:35.794Z,16.70
2023-05-16T22:10:03.845Z,16.63
2023-05-16T22:12:31.867Z,16.58
2023-05-16T22:14:59.787Z,16.54
2023-05-16T22:17:27.934Z,16.52
2023-05-16T22:19:55.893Z,16.53
2023-05-16T22:22:25.344Z,16.51
2023-05-16T22:24:53.580Z,16.51
2023-05-16T22:27:21.723Z,16.48
2023-05-16T22:29:49.812Z,16.38
2023-05-16T22:32:17.735Z,16.35
2023-05-16T22:34:45.720Z,16.37
2023-05-16T22:37:13.664Z,16.40
2023-05-16T22:39:43.072Z,16.40
2023-05-16T22:42:11.662Z,16.43
2023-05-16T22:44:39.582Z,16.44
2023-05-16T22:47:08.105Z,16.44
2023-05-16T22:49:36.067Z,16.41
2023-05-16T22:52:04.289Z,16.37
2023-05-16T22:54:32.449Z,16.35
2023-05-16T22:57:01.793Z,16.36
2023-05-16T22:59:29.728Z,16.39
2023-05-16T23:01:57.774Z,16.38
2023-05-16T23:04:25.774Z,16.36
2023-05-16T23:06:53.846Z,16.33
2023-05-16T23:09:21.789Z,16.33
2023-05-16T23:11:49.783Z,16.34
2023-05-16T23:14:19.085Z,16.33
2023-05-16T23:16:47.001Z,16.32
2023-05-16T23:19:15.072Z,16.24
2023-05-16T23:21:43.081Z,16.13
2023-05-16T23:24:11.040Z,16.02
2023-05-16T23:26:38.928Z,15.88
2023-05-16T23:29:07.201Z,15.73
2023-05-16T23:31:36.518Z,15.62
2023-05-16T23:34:04.704Z,15.50
2023-05-16T23:36:32.979Z,15.47
2023-05-16T23:39:01.129Z,15.46
2023-05-16T23:41:29.027Z,15.49
2023-05-16T23:43:57.106Z,15.50
2023-05-16T23:46:25.022Z,15.53
2023-05-16T23:48:54.411Z,15.52
2023-05-16T23:51:22.346Z,15.48
2023-05-16T23:53:50.374Z,15.49
2023-05-16T23:56:18.296Z,15.48
2023-05-16T23:58:46.344Z,15.49
